createdAt,value
2019-02-27T00:00:56.441Z,21.23
2019-02-27T00:03:29.103Z,18.33
2019-02-27T00:05:58.128Z,18.37
2019-02-27T00:08:27.479Z,19.57
2019-02-27T00:10:56.470Z,16.00
2019-02-27T00:13:25.481Z,14.50
2019-02-27T00:15:54.616Z,13.67
2019-02-27T00:18:24.462Z,11.27
2019-02-27T00:20:53.399Z,10.07
2019-02-27T00:23:24.151Z,8.90
2019-02-27T00:25:53.330Z,9.07
2019-02-27T00:28:23.346Z,8.97
2019-02-27T00:30:52.847Z,9.00
2019-02-27T00:33:24.904Z,8.63
2019-02-27T00:35:52.281Z,7.90
2019-02-27T00:38:28.355Z,8.10
2019-02-27T00:41:11.709Z,8.27
2019-02-27T00:43:46.516Z,8.07
2019-02-27T00:46:16.901Z,8.20
2019-02-27T00:48:45.599Z,8.10
2019-02-27T00:51:14.588Z,7.00
2019-02-27T00:53:43.578Z,7.87
2019-02-27T00:56:12.920Z,7.47
2019-02-27T00:58:41.835Z,7.90
2019-02-27T01:01:12.786Z,7.57
2019-02-27T01:03:42.316Z,7.23
2019-02-27T01:06:12.164Z,6.97
2019-02-27T01:08:42.037Z,7.40
2019-02-27T01:11:11.133Z,6.43
2019-02-27T01:13:39.919Z,7.47
2019-02-27T01:16:08.919Z,7.60
2019-02-27T01:18:37.906Z,6.57
2019-02-27T01:21:06.999Z,6.90
2019-02-27T01:23:36.092Z,6.57
2019-02-27T01:26:05.085Z,7.13
2019-02-27T01:28:33.975Z,6.57
2019-02-27T01:31:03.084Z,7.47
2019-02-27T01:33:32.065Z,7.28
2019-02-27T01:36:00.954Z,6.90
2019-02-27T01:38:29.740Z,6.57
2019-02-27T01:40:58.519Z,6.73
2019-02-27T01:43:27.284Z,6.13
2019-02-27T01:45:56.173Z,6.40
2019-02-27T01:48:24.995Z,6.97
2019-02-27T01:50:55.210Z,6.87
2019-02-27T01:53:24.718Z,6.33
2019-02-27T01:55:56.223Z,6.83
2019-02-27T01:58:24.409Z,6.97
2019-02-27T02:00:56.107Z,7.20
2019-02-27T02:03:23.927Z,6.83
2019-02-27T02:05:53.703Z,7.23
2019-02-27T02:08:22.666Z,6.70
2019-02-27T02:10:53.124Z,6.50
2019-02-27T02:13:25.013Z,6.50
2019-02-27T02:16:07.172Z,6.00
2019-02-27T02:18:43.053Z,5.50
2019-02-27T02:21:37.407Z,5.63
2019-02-27T02:24:25.540Z,4.67
2019-02-27T02:26:58.931Z,4.73
2019-02-27T02:29:45.880Z,4.97
2019-02-27T02:32:36.330Z,4.50
2019-02-27T02:35:18.529Z,4.80
2019-02-27T02:38:05.275Z,4.90
2019-02-27T02:40:59.554Z,4.50
2019-02-27T02:43:40.168Z,5.70
2019-02-27T02:46:09.728Z,5.00
2019-02-27T02:49:06.522Z,5.13
2019-02-27T02:52:04.350Z,13.87
2019-02-27T02:54:42.333Z,17.50
2019-02-27T02:57:18.952Z,19.50
2019-02-27T02:59:59.462Z,21.70
2019-02-27T03:02:31.521Z,23.67
2019-02-27T03:05:23.249Z,23.67
2019-02-27T03:08:23.578Z,27.67
2019-02-27T03:11:04.078Z,33.07
2019-02-27T03:13:43.416Z,38.67
2019-02-27T03:16:30.858Z,39.53
2019-02-27T03:19:06.378Z,40.60
2019-02-27T03:21:41.268Z,41.10
2019-02-27T03:24:38.320Z,42.93
2019-02-27T03:27:29.637Z,46.13
2019-02-27T03:30:33.742Z,39.57
2019-02-27T03:33:23.418Z,49.83
2019-02-27T03:36:06.553Z,48.93
2019-02-27T03:38:55.808Z,49.67
2019-02-27T03:41:37.075Z,51.30
2019-02-27T03:44:31.078Z,49.63
2019-02-27T03:47:19.117Z,50.47
2019-02-27T03:49:58.280Z,46.90
2019-02-27T03:52:58.299Z,47.10
2019-02-27T03:55:39.819Z,46.70
2019-02-27T03:58:30.239Z,46.30
2019-02-27T04:01:03.335Z,41.77
2019-02-27T04:03:38.886Z,44.40
2019-02-27T04:06:13.060Z,44.50
2019-02-27T04:08:55.767Z,45.47
2019-02-27T04:11:25.045Z,37.37
2019-02-27T04:13:55.024Z,45.23
2019-02-27T04:16:28.872Z,45.40
2019-02-27T04:18:54.665Z,45.23
2019-02-27T04:21:25.369Z,45.00
2019-02-27T04:23:54.268Z,38.83
2019-02-27T04:26:23.324Z,45.43
2019-02-27T04:28:52.168Z,46.40
2019-02-27T04:35:48.778Z,45.27
2019-02-27T04:38:17.869Z,45.27
2019-02-27T04:40:49.645Z,36.97
2019-02-27T04:43:18.482Z,45.17
2019-02-27T04:45:49.382Z,46.03
2019-02-27T04:48:18.644Z,37.50
2019-02-27T04:50:47.157Z,44.83
2019-02-27T04:53:15.796Z,45.03
2019-02-27T04:55:44.811Z,42.53
2019-02-27T04:58:13.985Z,38.23
2019-02-27T05:00:42.807Z,33.27
2019-02-27T05:03:11.744Z,30.67
2019-02-27T05:05:41.399Z,25.87
2019-02-27T05:08:10.885Z,23.40
2019-02-27T05:10:40.543Z,19.90
2019-02-27T05:13:10.924Z,20.47
2019-02-27T05:15:43.020Z,20.27
2019-02-27T05:18:11.671Z,19.87
2019-02-27T05:20:44.904Z,16.33
2019-02-27T05:23:11.149Z,15.97
2019-02-27T05:25:41.326Z,15.77
2019-02-27T05:28:10.123Z,14.03
2019-02-27T05:30:38.862Z,17.97
2019-02-27T05:33:07.657Z,18.80
2019-02-27T05:35:36.637Z,17.83
2019-02-27T05:38:05.709Z,17.43
2019-02-27T05:40:34.387Z,18.00
2019-02-27T05:43:47.716Z,18.27
2019-02-27T05:46:45.726Z,18.33
2019-02-27T05:49:51.556Z,17.90
2019-02-27T05:52:42.324Z,17.33
2019-02-27T05:55:50.136Z,18.93
2019-02-27T05:58:36.635Z,20.40
2019-02-27T06:01:24.120Z,21.73
2019-02-27T06:04:06.256Z,21.87
2019-02-27T06:07:11.541Z,22.50
2019-02-27T06:10:06.575Z,23.00
2019-02-27T06:12:57.798Z,23.03
2019-02-27T06:15:45.950Z,24.90
2019-02-27T06:18:41.907Z,23.67
2019-02-27T06:21:41.737Z,24.10
2019-02-27T06:25:21.386Z,25.13
2019-02-27T06:28:25.293Z,28.50
2019-02-27T06:31:41.800Z,26.37
2019-02-27T06:34:29.402Z,32.03
2019-02-27T06:36:58.067Z,31.23
2019-02-27T06:39:27.630Z,28.83
2019-02-27T06:41:56.527Z,29.43
2019-02-27T06:44:26.121Z,30.82
2019-02-27T06:46:54.706Z,29.97
2019-02-27T06:49:23.210Z,30.57
2019-02-27T06:51:51.663Z,32.67
2019-02-27T06:54:20.082Z,30.07
2019-02-27T06:56:49.516Z,28.20
2019-02-27T06:59:18.256Z,26.43
2019-02-27T07:01:47.521Z,24.50
2019-02-27T07:04:16.567Z,24.70
2019-02-27T07:06:45.286Z,25.43
2019-02-27T07:09:13.595Z,23.50
2019-02-27T07:11:44.931Z,23.73
2019-02-27T07:14:12.139Z,28.87
2019-02-27T07:16:41.735Z,25.03
2019-02-27T07:19:10.133Z,23.13
2019-02-27T07:21:38.530Z,23.57
2019-02-27T07:24:06.865Z,22.37
2019-02-27T07:26:35.182Z,19.20
2019-02-27T07:29:03.620Z,19.95
2019-02-27T07:36:40.530Z,19.77
2019-02-27T07:43:59.023Z,16.93
2019-02-27T07:46:35.626Z,16.60
2019-02-27T07:49:14.995Z,15.37
2019-02-27T07:52:05.659Z,13.40
2019-02-27T07:54:46.523Z,13.03
2019-02-27T07:57:19.554Z,11.67
2019-02-27T08:00:00.775Z,10.07
2019-02-27T08:02:51.067Z,10.40
2019-02-27T08:05:30.574Z,10.17
2019-02-27T08:08:06.861Z,10.60
2019-02-27T08:10:45.305Z,10.97
2019-02-27T08:13:19.434Z,10.30
2019-02-27T08:15:54.507Z,10.53
2019-02-27T08:18:30.167Z,9.50
2019-02-27T08:20:55.927Z,10.67
2019-02-27T08:23:32.884Z,9.90
2019-02-27T08:26:05.159Z,10.37
2019-02-27T08:28:33.155Z,10.80
2019-02-27T08:31:01.552Z,8.10
2019-02-27T08:33:30.970Z,10.83
2019-02-27T08:35:59.790Z,9.07
2019-02-27T08:38:28.255Z,9.13
2019-02-27T08:40:58.234Z,9.83
2019-02-27T08:43:26.739Z,11.53
2019-02-27T08:45:55.105Z,10.13
2019-02-27T08:48:23.483Z,16.43
2019-02-27T08:50:51.920Z,19.57
2019-02-27T08:53:23.045Z,18.40
2019-02-27T08:55:50.610Z,18.50
2019-02-27T08:58:19.239Z,20.70
2019-02-27T09:00:48.241Z,24.63
2019-02-27T09:03:20.230Z,27.93
2019-02-27T09:05:47.141Z,25.87
2019-02-27T09:08:15.610Z,24.30
2019-02-27T09:10:45.036Z,22.90
2019-02-27T09:13:16.412Z,22.70
2019-02-27T09:15:47.229Z,22.40
2019-02-27T09:18:15.678Z,21.30
2019-02-27T09:20:44.200Z,20.97
2019-02-27T09:23:12.552Z,19.63
2019-02-27T09:25:42.257Z,19.50
2019-02-27T09:28:10.826Z,17.93
2019-02-27T09:31:03.268Z,18.17
2019-02-27T09:33:38.338Z,20.43
2019-02-27T09:36:01.469Z,21.23
2019-02-27T09:38:35.745Z,22.73
2019-02-27T09:41:06.382Z,16.73
2019-02-27T09:43:36.426Z,18.17
2019-02-27T09:46:09.993Z,15.80
2019-02-27T09:48:40.308Z,17.50
2019-02-27T09:51:10.157Z,14.13
2019-02-27T09:53:39.453Z,17.20
2019-02-27T09:56:08.834Z,17.90
2019-02-27T09:58:38.335Z,20.87
2019-02-27T10:01:26.704Z,19.48
2019-02-27T10:03:56.185Z,16.97
2019-02-27T10:06:25.329Z,16.03
2019-02-27T10:08:56.473Z,16.13
2019-02-27T10:11:25.690Z,13.20
2019-02-27T10:13:55.639Z,12.75
2019-02-27T10:16:24.857Z,11.67
2019-02-27T10:18:55.548Z,10.93
2019-02-27T10:21:25.769Z,13.00
2019-02-27T10:23:55.180Z,13.17
2019-02-27T10:26:24.494Z,10.00
2019-02-27T10:28:54.320Z,13.00
2019-02-27T10:31:25.903Z,10.83
2019-02-27T10:33:55.565Z,12.57
2019-02-27T10:36:25.904Z,10.67
2019-02-27T10:38:55.703Z,10.10
2019-02-27T10:41:25.492Z,10.47
2019-02-27T10:43:56.663Z,10.53
2019-02-27T10:46:27.241Z,9.90
2019-02-27T10:48:56.783Z,9.70
2019-02-27T10:51:25.609Z,10.07
2019-02-27T10:53:55.260Z,8.67
2019-02-27T10:56:24.932Z,8.23
2019-02-27T10:58:54.861Z,9.27
2019-02-27T11:01:24.388Z,8.10
2019-02-27T11:03:54.636Z,8.50
2019-02-27T11:06:24.014Z,9.10
2019-02-27T11:08:53.854Z,7.90
2019-02-27T11:11:23.064Z,6.20
2019-02-27T11:13:55.323Z,5.10
2019-02-27T11:16:24.635Z,7.57
2019-02-27T11:18:53.741Z,6.40
2019-02-27T11:21:22.704Z,7.33
2019-02-27T11:23:51.575Z,5.60
2019-02-27T11:26:20.659Z,6.73
2019-02-27T11:28:49.379Z,6.47
2019-02-27T11:31:22.388Z,4.60
2019-02-27T11:33:51.158Z,5.40
2019-02-27T11:36:20.261Z,6.57
2019-02-27T11:38:49.065Z,7.05
2019-02-27T11:41:18.106Z,7.67
2019-02-27T11:43:46.987Z,6.73
2019-02-27T11:46:15.814Z,6.30
2019-02-27T11:48:44.805Z,6.00
2019-02-27T11:51:14.007Z,6.37
2019-02-27T11:53:43.088Z,5.40
2019-02-27T11:56:11.647Z,5.00
2019-02-27T11:58:40.680Z,4.15
2019-02-27T12:01:12.138Z,3.60
2019-02-27T12:03:45.724Z,4.20
2019-02-27T12:06:12.083Z,3.73
2019-02-27T12:08:41.352Z,4.50
2019-02-27T12:11:13.207Z,4.40
2019-02-27T12:13:40.887Z,4.30
2019-02-27T12:16:10.714Z,4.80
2019-02-27T12:18:39.883Z,5.20
2019-02-27T12:21:08.672Z,5.20
2019-02-27T12:23:37.300Z,5.20
2019-02-27T12:26:06.226Z,5.97
2019-02-27T12:28:34.831Z,5.13
2019-02-27T12:31:03.820Z,5.40
2019-02-27T12:33:34.427Z,4.93
2019-02-27T12:36:03.612Z,5.60
2019-02-27T12:38:32.440Z,5.50
2019-02-27T12:41:01.430Z,6.92
2019-02-27T12:43:30.337Z,5.20
2019-02-27T12:46:00.914Z,5.53
2019-02-27T12:48:30.442Z,5.07
2019-02-27T12:51:03.444Z,5.63
2019-02-27T12:53:30.067Z,5.80
2019-02-27T12:55:59.199Z,5.60
2019-02-27T12:58:28.047Z,6.55
2019-02-27T13:00:56.609Z,7.07
2019-02-27T13:03:25.640Z,6.37
2019-02-27T13:05:54.633Z,6.53
2019-02-27T13:08:23.630Z,5.07
2019-02-27T13:10:52.307Z,6.70
2019-02-27T13:13:23.286Z,6.50
2019-02-27T13:15:52.038Z,6.53
2019-02-27T13:18:21.129Z,5.22
2019-02-27T13:20:49.918Z,5.60
2019-02-27T13:23:19.028Z,3.33
2019-02-27T13:25:47.905Z,4.30
2019-02-27T13:28:16.997Z,4.67
2019-02-27T13:30:46.090Z,4.50
2019-02-27T13:33:14.879Z,4.60
2019-02-27T13:35:44.145Z,4.20
2019-02-27T13:38:17.732Z,5.70
2019-02-27T13:40:43.699Z,4.00
2019-02-27T13:43:12.595Z,3.70
2019-02-27T13:45:41.580Z,4.23
2019-02-27T13:48:10.679Z,4.83
2019-02-27T13:50:39.465Z,4.70
2019-02-27T13:53:08.558Z,4.00
2019-02-27T13:55:37.347Z,2.47
2019-02-27T13:58:06.317Z,2.83
2019-02-27T14:00:35.094Z,3.13
2019-02-27T14:03:03.810Z,4.40
2019-02-27T14:05:35.421Z,4.23
2019-02-27T14:08:03.435Z,4.50
2019-02-27T14:10:32.431Z,4.57
2019-02-27T14:13:01.484Z,4.80
2019-02-27T14:15:31.534Z,5.50
2019-02-27T14:18:01.862Z,4.60
2019-02-27T14:20:31.938Z,3.77
2019-02-27T14:23:00.641Z,4.50
2019-02-27T14:25:33.073Z,5.23
2019-02-27T14:28:00.104Z,5.73
2019-02-27T14:30:31.124Z,5.40
2019-02-27T14:32:59.781Z,5.63
2019-02-27T14:35:35.242Z,5.50
2019-02-27T14:38:00.353Z,6.23
2019-02-27T14:40:29.273Z,6.60
2019-02-27T14:42:58.035Z,6.25
2019-02-27T14:45:27.031Z,6.67
2019-02-27T14:47:55.795Z,6.70
2019-02-27T14:50:24.780Z,6.33
2019-02-27T14:52:53.665Z,5.13
2019-02-27T14:55:22.657Z,6.37
2019-02-27T14:57:51.661Z,5.93
2019-02-27T15:00:22.230Z,5.73
2019-02-27T15:02:52.114Z,6.30
2019-02-27T15:05:21.120Z,6.40
2019-02-27T15:07:53.397Z,5.97
2019-02-27T15:10:20.737Z,6.70
2019-02-27T15:12:53.983Z,7.10
2019-02-27T15:15:21.570Z,60.13
2019-02-27T15:17:51.221Z,70.53
2019-02-27T15:20:22.108Z,69.30
2019-02-27T15:22:52.426Z,74.23
2019-02-27T15:25:21.567Z,90.90
2019-02-27T15:27:50.544Z,88.67
2019-02-27T15:30:20.154Z,83.50
2019-02-27T15:32:48.874Z,85.83
2019-02-27T15:35:21.930Z,81.50
2019-02-27T15:37:49.585Z,80.17
2019-02-27T15:40:19.209Z,81.70
2019-02-27T15:42:47.838Z,79.50
2019-02-27T15:45:16.951Z,76.70
2019-02-27T15:47:45.827Z,76.30
2019-02-27T15:50:15.778Z,72.77
2019-02-27T15:52:44.475Z,74.57
2019-02-27T15:55:13.493Z,76.93
2019-02-27T15:57:42.235Z,73.57
2019-02-27T16:00:17.684Z,70.87
2019-02-27T16:02:43.191Z,71.90
2019-02-27T16:05:12.257Z,72.00
2019-02-27T16:07:41.078Z,70.53
2019-02-27T16:10:10.805Z,72.17
2019-02-27T16:12:39.885Z,73.30
2019-02-27T16:15:08.790Z,71.60
2019-02-27T16:17:37.767Z,71.47
2019-02-27T16:20:07.846Z,70.80
2019-02-27T16:22:36.839Z,72.67
2019-02-27T16:25:05.963Z,74.10
2019-02-27T16:27:35.379Z,72.70
2019-02-27T16:30:05.792Z,73.00
2019-02-27T16:32:34.308Z,74.20
2019-02-27T16:35:04.397Z,69.30
2019-02-27T16:37:33.806Z,70.57
2019-02-27T16:40:02.794Z,71.43
2019-02-27T16:42:32.624Z,72.03
2019-02-27T16:45:01.508Z,67.80
2019-02-27T16:47:30.334Z,67.03
2019-02-27T16:49:59.245Z,67.57
2019-02-27T16:52:28.127Z,68.13
2019-02-27T16:55:01.291Z,69.47
2019-02-27T16:57:30.044Z,71.17
2019-02-27T16:59:58.955Z,75.10
2019-02-27T17:02:27.832Z,76.97
2019-02-27T17:04:56.535Z,78.57
2019-02-27T17:07:26.040Z,77.17
2019-02-27T17:09:55.619Z,76.20
2019-02-27T17:12:24.610Z,73.00
2019-02-27T17:14:55.448Z,76.97
2019-02-27T17:17:24.307Z,81.00
2019-02-27T17:19:53.169Z,79.67
2019-02-27T17:22:22.221Z,83.07
2019-02-27T17:24:55.152Z,79.70
2019-02-27T17:27:41.616Z,78.63
2019-02-27T17:31:04.061Z,78.57
2019-02-27T17:34:15.645Z,81.17
2019-02-27T17:37:45.242Z,80.70
2019-02-27T17:40:55.328Z,78.83
2019-02-27T17:44:35.307Z,80.10
2019-02-27T17:47:07.615Z,75.83
2019-02-27T17:49:37.081Z,76.07
2019-02-27T17:52:11.282Z,75.23
2019-02-27T17:54:36.739Z,82.10
2019-02-27T17:57:05.725Z,85.13
2019-02-27T18:00:04.783Z,79.90
2019-02-27T18:02:36.882Z,71.33
2019-02-27T18:05:06.014Z,70.77
2019-02-27T18:07:35.008Z,68.17
2019-02-27T18:10:04.212Z,68.63
2019-02-27T18:12:33.298Z,68.63
2019-02-27T18:15:02.212Z,65.60
2019-02-27T18:17:34.695Z,61.83
2019-02-27T18:20:02.635Z,57.43
2019-02-27T18:22:32.047Z,61.17
2019-02-27T18:25:45.263Z,60.57
2019-02-27T18:28:15.283Z,59.10
2019-02-27T18:30:44.954Z,61.17
2019-02-27T18:33:17.331Z,59.57
2019-02-27T18:35:46.208Z,65.25
2019-02-27T18:38:16.075Z,62.60
2019-02-27T18:40:44.949Z,63.63
2019-02-27T18:43:14.690Z,60.93
2019-02-27T18:45:44.317Z,62.97
2019-02-27T18:48:15.163Z,63.13
2019-02-27T18:50:44.734Z,160.90
2019-02-27T18:53:14.217Z,163.33
2019-02-27T18:55:44.150Z,152.83
2019-02-27T18:58:13.635Z,213.03
2019-02-27T19:00:44.112Z,193.63
2019-02-27T19:03:33.957Z,128.57
2019-02-27T19:06:04.672Z,99.58
2019-02-27T19:08:35.748Z,79.43
2019-02-27T19:11:05.857Z,69.00
2019-02-27T19:13:35.153Z,67.47
2019-02-27T19:16:05.541Z,70.63
2019-02-27T19:18:35.234Z,65.67
2019-02-27T19:21:04.267Z,64.47
2019-02-27T19:23:34.137Z,60.37
2019-02-27T19:26:06.387Z,61.57
2019-02-27T19:28:37.083Z,65.27
2019-02-27T19:31:06.626Z,60.50
2019-02-27T19:33:36.876Z,58.87
2019-02-27T19:36:06.931Z,58.13
2019-02-27T19:38:36.552Z,59.43
2019-02-27T19:41:06.740Z,55.83
2019-02-27T19:43:36.278Z,55.87
2019-02-27T19:46:06.936Z,57.43
2019-02-27T19:48:38.395Z,59.57
2019-02-27T19:51:08.301Z,57.60
2019-02-27T19:53:39.634Z,56.87
2019-02-27T19:56:10.585Z,60.97
2019-02-27T19:58:41.105Z,64.23
2019-02-27T20:01:11.355Z,65.93
2019-02-27T20:03:41.624Z,70.30
2019-02-27T20:06:12.556Z,73.27
2019-02-27T20:08:45.312Z,49.40
2019-02-27T20:11:15.476Z,48.10
2019-02-27T20:13:46.652Z,47.40
2019-02-27T20:16:17.750Z,44.53
2019-02-27T20:18:55.259Z,44.93
2019-02-27T20:21:26.253Z,44.30
2019-02-27T20:24:01.032Z,42.63
2019-02-27T20:26:44.945Z,40.90
2019-02-27T20:29:18.653Z,39.87
2019-02-27T20:31:48.587Z,39.83
2019-02-27T20:34:18.710Z,39.30
2019-02-27T20:36:49.651Z,39.00
2019-02-27T20:39:23.166Z,39.40
2019-02-27T20:41:52.429Z,38.73
2019-02-27T20:44:22.895Z,38.97
2019-02-27T20:46:53.113Z,37.93
2019-02-27T20:49:23.380Z,39.13
2019-02-27T20:51:53.216Z,38.27
2019-02-27T20:54:24.307Z,36.83
2019-02-27T20:56:55.779Z,36.90
2019-02-27T20:59:26.616Z,35.13
2019-02-27T21:01:57.046Z,35.47
2019-02-27T21:04:27.421Z,33.43
2019-02-27T21:06:58.531Z,33.67
2019-02-27T21:09:28.016Z,34.83
2019-02-27T21:12:01.092Z,34.37
2019-02-27T21:14:29.974Z,33.00
2019-02-27T21:16:59.239Z,32.17
2019-02-27T21:19:28.769Z,32.73
2019-02-27T21:21:58.728Z,31.23
2019-02-27T21:24:28.133Z,31.87
2019-02-27T21:26:58.371Z,30.50
2019-02-27T21:29:27.716Z,30.60
2019-02-27T21:32:01.457Z,30.23
2019-02-27T21:34:31.166Z,31.40
2019-02-27T21:37:01.063Z,31.47
2019-02-27T21:39:30.696Z,31.10
2019-02-27T21:42:00.069Z,29.83
2019-02-27T21:44:29.801Z,29.47
2019-02-27T21:46:59.524Z,29.50
2019-02-27T21:49:31.708Z,28.87
2019-02-27T21:52:00.202Z,29.13
2019-02-27T21:54:29.333Z,28.50
2019-02-27T21:56:58.829Z,28.33
2019-02-27T21:59:28.385Z,28.93
2019-02-27T22:01:58.263Z,27.70
2019-02-27T22:04:27.359Z,27.63
2019-02-27T22:06:58.430Z,27.37
2019-02-27T22:09:28.682Z,25.07
2019-02-27T22:11:58.137Z,25.37
2019-02-27T22:14:28.829Z,26.00
2019-02-27T22:17:01.700Z,24.90
2019-02-27T22:19:30.178Z,24.00
2019-02-27T22:22:01.732Z,23.97
2019-02-27T22:24:30.646Z,23.80
2019-02-27T22:27:00.351Z,23.83
2019-02-27T22:29:29.255Z,24.17
2019-02-27T22:31:58.143Z,24.67
2019-02-27T22:34:27.727Z,23.93
2019-02-27T22:36:57.772Z,24.63
2019-02-27T22:39:26.656Z,26.77
2019-02-27T22:41:55.654Z,24.50
2019-02-27T22:44:26.359Z,24.60
2019-02-27T22:46:58.578Z,22.60
2019-02-27T22:49:27.750Z,21.90
2019-02-27T22:51:57.807Z,21.87
2019-02-27T22:54:26.956Z,22.43
2019-02-27T22:56:57.071Z,21.77
2019-02-27T22:59:26.787Z,20.07
2019-02-27T23:01:56.524Z,20.87
2019-02-27T23:04:26.466Z,19.63
2019-02-27T23:06:56.449Z,21.67
2019-02-27T23:09:26.632Z,20.97
2019-02-27T23:11:55.643Z,20.57
2019-02-27T23:14:24.751Z,20.77
2019-02-27T23:16:53.695Z,21.33
2019-02-27T23:19:22.623Z,20.73
2019-02-27T23:21:52.447Z,21.97
2019-02-27T23:24:21.521Z,21.63
2019-02-27T23:26:54.160Z,22.90
2019-02-27T23:29:22.073Z,22.23
2019-02-27T23:31:50.963Z,21.83
2019-02-27T23:34:20.120Z,22.00
2019-02-27T23:36:48.947Z,22.80
2019-02-27T23:39:17.735Z,23.00
2019-02-27T23:41:46.932Z,23.20
2019-02-27T23:44:15.822Z,23.27
2019-02-27T23:46:49.768Z,23.70
2019-02-27T23:49:15.554Z,24.17
2019-02-27T23:51:47.766Z,24.20
2019-02-27T23:54:15.317Z,24.90
2019-02-27T23:56:44.234Z,25.00
2019-02-27T23:59:12.951Z,26.13
